LFRO/LAI METAR and TAF weather

Enter ICAO airport designator
Station Type Date Time Source
LFRO METAR 2019/10/14 06:00 UTC NOAA

LFRO 140600Z AUTO 10005KT 9000 -RA FEW002 SCT019 BKN046 12/11 Q1005


Station Type Date Time Source
LFRO Decoded METAR 2019/10/14 06:00 UTC NOAA

Lannion / Servel, France (LFRO) 48-45N 003-28W
Oct 14, 2019 - 02:00 AM EDT / 2019.10.14 0600 UTC
Wind: from the E (100 degrees) at 6 MPH (5 KT):0
Visibility: 5 mile(s):0
Sky conditions: mostly cloudy
Weather: light rain
Temperature: 53 F (12 C)
Dew Point: 51 F (11 C)
Relative Humidity: 93%
Pressure (altimeter): 29.68 in. Hg (1005 hPa)
ob: LFRO 140600Z AUTO 10005KT 9000 -RA FEW002 SCT019 BKN046 12/11 Q1005
cycle: 6

Station Type Date Time Source
LFRO TAF 2019/05/15 19:06 UTC NOAA

TAF LFRO 151936Z 1519/1612 CNL

Example: see airport list